sensor_id;sensor_type;location;lat;lon;timestamp;temperature;humidity
40153;DHT22;26371;56.992;23.912;2023-07-20T00:00:37;13.90;99.90
40153;DHT22;26371;56.992;23.912;2023-07-20T00:03:12;13.80;99.90
40153;DHT22;26371;56.992;23.912;2023-07-20T00:05:44;13.80;99.90
40153;DHT22;26371;56.992;23.912;2023-07-20T00:08:12;13.70;99.90
40153;DHT22;26371;56.992;23.912;2023-07-20T00:10:40;13.60;99.90
40153;DHT22;26371;56.992;23.912;2023-07-20T00:13:09;13.60;99.90
40153;DHT22;26371;56.992;23.912;2023-07-20T00:15:39;13.60;99.90
40153;DHT22;26371;56.992;23.912;2023-07-20T00:18:08;13.60;99.90
40153;DHT22;26371;56.992;23.912;2023-07-20T00:20:36;13.60;99.90
40153;DHT22;26371;56.992;23.912;2023-07-20T00:23:05;13.60;99.90
40153;DHT22;26371;56.992;23.912;2023-07-20T00:25:33;13.60;99.90
40153;DHT22;26371;56.992;23.912;2023-07-20T00:28:02;13.50;99.90
40153;DHT22;26371;56.992;23.912;2023-07-20T00:30:30;13.40;99.90
40153;DHT22;26371;56.992;23.912;2023-07-20T00:33:00;13.40;99.90
40153;DHT22;26371;56.992;23.912;2023-07-20T00:35:28;13.50;99.90
40153;DHT22;26371;56.992;23.912;2023-07-20T00:37:57;13.40;99.90
40153;DHT22;26371;56.992;23.912;2023-07-20T00:40:25;13.40;99.90
40153;DHT22;26371;56.992;23.912;2023-07-20T00:42:55;13.50;99.90
40153;DHT22;26371;56.992;23.912;2023-07-20T00:45:24;13.40;99.90
40153;DHT22;26371;56.992;23.912;2023-07-20T00:47:53;13.50;99.90
40153;DHT22;26371;56.992;23.912;2023-07-20T00:50:23;13.50;99.90
40153;DHT22;26371;56.992;23.912;2023-07-20T00:52:52;13.60;99.90
40153;DHT22;26371;56.992;23.912;2023-07-20T00:55:20;13.60;99.90
40153;DHT22;26371;56.992;23.912;2023-07-20T00:57:49;13.50;99.90
40153;DHT22;26371;56.992;23.912;2023-07-20T01:00:18;13.60;99.90
40153;DHT22;26371;56.992;23.912;2023-07-20T01:02:47;13.50;99.90
40153;DHT22;26371;56.992;23.912;2023-07-20T01:05:15;13.50;99.90
40153;DHT22;26371;56.992;23.912;2023-07-20T01:07:51;13.50;99.90
40153;DHT22;26371;56.992;23.912;2023-07-20T01:10:24;13.50;99.90
40153;DHT22;26371;56.992;23.912;2023-07-20T01:12:53;13.50;99.90
40153;DHT22;26371;56.992;23.912;2023-07-20T01:15:23;13.50;99.90
40153;DHT22;26371;56.992;23.912;2023-07-20T01:17:51;13.50;99.90
40153;DHT22;26371;56.992;23.912;2023-07-20T01:20:20;13.50;99.90
40153;DHT22;26371;56.992;23.912;2023-07-20T01:25:39;13.50;99.90
40153;DHT22;26371;56.992;23.912;2023-07-20T01:30:59;13.50;99.90
40153;DHT22;26371;56.992;23.912;2023-07-20T01:33:30;13.50;99.90
40153;DHT22;26371;56.992;23.912;2023-07-20T01:36:01;13.40;99.90
40153;DHT22;26371;56.992;23.912;2023-07-20T01:38:30;13.40;99.90
40153;DHT22;26371;56.992;23.912;2023-07-20T01:40:58;13.30;99.90
40153;DHT22;26371;56.992;23.912;2023-07-20T01:43:26;13.30;99.90
40153;DHT22;26371;56.992;23.912;2023-07-20T01:45:55;13.30;99.90
40153;DHT22;26371;56.992;23.912;2023-07-20T01:48:23;13.30;99.90
40153;DHT22;26371;56.992;23.912;2023-07-20T01:50:53;13.30;99.90
40153;DHT22;26371;56.992;23.912;2023-07-20T01:53:22;13.30;99.90
40153;DHT22;26371;56.992;23.912;2023-07-20T01:55:52;13.20;99.90
40153;DHT22;26371;56.992;23.912;2023-07-20T01:58:20;13.20;99.90
40153;DHT22;26371;56.992;23.912;2023-07-20T02:00:49;13.30;99.90
40153;DHT22;26371;56.992;23.912;2023-07-20T02:03:19;13.30;99.90
40153;DHT22;26371;56.992;23.912;2023-07-20T02:05:48;13.30;99.90
40153;DHT22;26371;56.992;23.912;2023-07-20T02:08:18;13.20;99.90
40153;DHT22;26371;56.992;23.912;2023-07-20T02:10:47;13.20;99.90
40153;DHT22;26371;56.992;23.912;2023-07-20T02:13:52;13.20;99.90
40153;DHT22;26371;56.992;23.912;2023-07-20T02:16:22;13.20;99.90
40153;DHT22;26371;56.992;23.912;2023-07-20T02:18:51;13.20;99.90
40153;DHT22;26371;56.992;23.912;2023-07-20T02:21:20;13.10;99.90
40153;DHT22;26371;56.992;23.912;2023-07-20T02:23:50;13.10;99.90
40153;DHT22;26371;56.992;23.912;2023-07-20T02:26:18;13.20;99.90
40153;DHT22;26371;56.992;23.912;2023-07-20T02:28:47;13.20;99.90
40153;DHT22;26371;56.992;23.912;2023-07-20T02:31:16;13.20;99.90
40153;DHT22;26371;56.992;23.912;2023-07-20T02:33:44;13.10;99.90
40153;DHT22;26371;56.992;23.912;2023-07-20T02:36:12;13.10;99.90
40153;DHT22;26371;56.992;23.912;2023-07-20T02:38:41;13.10;99.90
40153;DHT22;26371;56.992;23.912;2023-07-20T02:41:11;13.10;99.90
40153;DHT22;26371;56.992;23.912;2023-07-20T02:43:39;13.10;99.90
40153;DHT22;26371;56.992;23.912;2023-07-20T02:46:07;13.10;99.90
40153;DHT22;26371;56.992;23.912;2023-07-20T02:48:36;13.10;99.90
40153;DHT22;26371;56.992;23.912;2023-07-20T02:51:04;13.10;99.90
40153;DHT22;26371;56.992;23.912;2023-07-20T02:53:34;13.10;99.90
40153;DHT22;26371;56.992;23.912;2023-07-20T02:56:03;13.10;99.90
40153;DHT22;26371;56.992;23.912;2023-07-20T02:58:33;13.10;99.90
40153;DHT22;26371;56.992;23.912;2023-07-20T03:01:03;13.10;99.90
40153;DHT22;26371;56.992;23.912;2023-07-20T03:03:32;13.10;99.90
40153;DHT22;26371;56.992;23.912;2023-07-20T03:06:05;13.20;99.90
40153;DHT22;26371;56.992;23.912;2023-07-20T03:08:36;13.20;99.90
40153;DHT22;26371;56.992;23.912;2023-07-20T03:11:05;13.20;99.90
40153;DHT22;26371;56.992;23.912;2023-07-20T03:13:35;13.30;99.90
40153;DHT22;26371;56.992;23.912;2023-07-20T03:16:03;13.30;99.90
40153;DHT22;26371;56.992;23.912;2023-07-20T03:18:32;13.30;99.90
40153;DHT22;26371;56.992;23.912;2023-07-20T03:21:00;13.30;99.90
40153;DHT22;26371;56.992;23.912;2023-07-20T03:23:30;13.30;99.90
40153;DHT22;26371;56.992;23.912;2023-07-20T03:25:58;13.30;99.90
40153;DHT22;26371;56.992;23.912;2023-07-20T03:28:26;13.40;99.90
40153;DHT22;26371;56.992;23.912;2023-07-20T03:30:56;13.40;99.90
40153;DHT22;26371;56.992;23.912;2023-07-20T03:33:27;13.50;99.90
40153;DHT22;26371;56.992;23.912;2023-07-20T03:35:57;13.60;99.90
40153;DHT22;26371;56.992;23.912;2023-07-20T03:38:26;13.60;99.90
40153;DHT22;26371;56.992;23.912;2023-07-20T03:40:55;13.60;99.90
40153;DHT22;26371;56.992;23.912;2023-07-20T03:43:24;13.60;99.90
40153;DHT22;26371;56.992;23.912;2023-07-20T03:45:53;13.60;99.90
40153;DHT22;26371;56.992;23.912;2023-07-20T03:48:24;13.70;99.90
40153;DHT22;26371;56.992;23.912;2023-07-20T03:50:53;13.60;99.90
40153;DHT22;26371;56.992;23.912;2023-07-20T03:53:23;13.60;99.90
40153;DHT22;26371;56.992;23.912;2023-07-20T03:55:51;13.60;99.90
40153;DHT22;26371;56.992;23.912;2023-07-20T03:58:20;13.60;99.90
40153;DHT22;26371;56.992;23.912;2023-07-20T04:00:49;13.60;99.90
40153;DHT22;26371;56.992;23.912;2023-07-20T04:03:18;13.70;99.90
40153;DHT22;26371;56.992;23.912;2023-07-20T04:05:48;13.70;99.90
40153;DHT22;26371;56.992;23.912;2023-07-20T04:08:17;13.70;99.90
40153;DHT22;26371;56.992;23.912;2023-07-20T04:10:45;13.70;99.90
40153;DHT22;26371;56.992;23.912;2023-07-20T04:13:14;13.70;99.90
40153;DHT22;26371;56.992;23.912;2023-07-20T04:15:42;13.70;99.90
40153;DHT22;26371;56.992;23.912;2023-07-20T04:18:11;13.60;99.90
40153;DHT22;26371;56.992;23.912;2023-07-20T04:20:42;13.60;99.90
40153;DHT22;26371;56.992;23.912;2023-07-20T04:23:12;13.50;99.90
40153;DHT22;26371;56.992;23.912;2023-07-20T04:25:41;13.60;99.90
40153;DHT22;26371;56.992;23.912;2023-07-20T04:28:11;13.60;99.90
40153;DHT22;26371;56.992;23.912;2023-07-20T04:30:45;13.70;99.90
40153;DHT22;26371;56.992;23.912;2023-07-20T04:33:13;13.80;99.90
40153;DHT22;26371;56.992;23.912;2023-07-20T04:35:47;13.90;99.90
40153;DHT22;26371;56.992;23.912;2023-07-20T04:38:20;14.10;99.90
40153;DHT22;26371;56.992;23.912;2023-07-20T04:40:56;14.20;99.90
40153;DHT22;26371;56.992;23.912;2023-07-20T04:43:24;14.40;99.90
40153;DHT22;26371;56.992;23.912;2023-07-20T04:45:58;14.50;99.90
40153;DHT22;26371;56.992;23.912;2023-07-20T04:48:28;14.70;99.90
40153;DHT22;26371;56.992;23.912;2023-07-20T04:50:57;14.90;99.90
40153;DHT22;26371;56.992;23.912;2023-07-20T04:53:27;15.00;99.90
40153;DHT22;26371;56.992;23.912;2023-07-20T04:55:56;15.20;99.90
40153;DHT22;26371;56.992;23.912;2023-07-20T04:58:25;15.30;99.90
40153;DHT22;26371;56.992;23.912;2023-07-20T05:00:54;15.30;99.90
40153;DHT22;26371;56.992;23.912;2023-07-20T05:03:23;15.20;99.90
40153;DHT22;26371;56.992;23.912;2023-07-20T05:05:52;15.10;99.90
40153;DHT22;26371;56.992;23.912;2023-07-20T05:08:21;15.10;99.90
40153;DHT22;26371;56.992;23.912;2023-07-20T05:10:51;15.20;99.90
40153;DHT22;26371;56.992;23.912;2023-07-20T05:13:20;15.30;99.90
40153;DHT22;26371;56.992;23.912;2023-07-20T05:15:50;15.30;99.90
40153;DHT22;26371;56.992;23.912;2023-07-20T05:18:20;15.30;99.90
40153;DHT22;26371;56.992;23.912;2023-07-20T05:20:49;15.30;99.90
40153;DHT22;26371;56.992;23.912;2023-07-20T05:23:19;15.20;99.90
40153;DHT22;26371;56.992;23.912;2023-07-20T05:25:54;15.20;99.90
40153;DHT22;26371;56.992;23.912;2023-07-20T05:28:23;15.30;99.90
40153;DHT22;26371;56.992;23.912;2023-07-20T05:30:52;15.40;99.90
40153;DHT22;26371;56.992;23.912;2023-07-20T05:33:20;15.40;99.90
40153;DHT22;26371;56.992;23.912;2023-07-20T05:35:49;15.50;99.90
40153;DHT22;26371;56.992;23.912;2023-07-20T05:38:17;15.50;99.90
40153;DHT22;26371;56.992;23.912;2023-07-20T05:40:46;15.50;99.90
40153;DHT22;26371;56.992;23.912;2023-07-20T05:43:16;15.70;99.90
40153;DHT22;26371;56.992;23.912;2023-07-20T05:45:45;15.90;99.90
40153;DHT22;26371;56.992;23.912;2023-07-20T05:48:31;16.10;99.90
40153;DHT22;26371;56.992;23.912;2023-07-20T05:50:59;16.20;99.90
40153;DHT22;26371;56.992;23.912;2023-07-20T05:53:28;16.30;99.90
40153;DHT22;26371;56.992;23.912;2023-07-20T05:55:56;16.30;99.90
40153;DHT22;26371;56.992;23.912;2023-07-20T05:58:26;16.40;99.90
40153;DHT22;26371;56.992;23.912;2023-07-20T06:00:55;16.40;99.90
40153;DHT22;26371;56.992;23.912;2023-07-20T06:03:23;16.50;99.90
40153;DHT22;26371;56.992;23.912;2023-07-20T06:05:52;16.50;99.90
40153;DHT22;26371;56.992;23.912;2023-07-20T06:08:21;16.40;99.90
40153;DHT22;26371;56.992;23.912;2023-07-20T06:10:49;16.40;99.90
40153;DHT22;26371;56.992;23.912;2023-07-20T06:13:18;16.40;99.90
40153;DHT22;26371;56.992;23.912;2023-07-20T06:15:48;16.30;99.90
40153;DHT22;26371;56.992;23.912;2023-07-20T06:18:17;16.20;99.90
40153;DHT22;26371;56.992;23.912;2023-07-20T06:20:48;16.20;99.90
40153;DHT22;26371;56.992;23.912;2023-07-20T06:23:16;16.30;99.90
40153;DHT22;26371;56.992;23.912;2023-07-20T06:25:45;16.40;99.90
40153;DHT22;26371;56.992;23.912;2023-07-20T06:35:46;16.80;99.90
40153;DHT22;26371;56.992;23.912;2023-07-20T06:38:14;17.00;99.90
40153;DHT22;26371;56.992;23.912;2023-07-20T06:40:46;17.10;99.90
40153;DHT22;26371;56.992;23.912;2023-07-20T06:43:14;17.20;99.90
40153;DHT22;26371;56.992;23.912;2023-07-20T06:45:50;17.30;99.90
40153;DHT22;26371;56.992;23.912;2023-07-20T06:48:19;17.50;99.90
40153;DHT22;26371;56.992;23.912;2023-07-20T06:50:49;17.70;99.90
40153;DHT22;26371;56.992;23.912;2023-07-20T06:53:17;17.70;99.90
40153;DHT22;26371;56.992;23.912;2023-07-20T06:55:46;17.80;99.90
40153;DHT22;26371;56.992;23.912;2023-07-20T06:58:14;17.90;99.90
40153;DHT22;26371;56.992;23.912;2023-07-20T07:00:43;18.10;99.90
40153;DHT22;26371;56.992;23.912;2023-07-20T07:03:11;18.20;99.90
40153;DHT22;26371;56.992;23.912;2023-07-20T07:05:40;18.30;99.90
40153;DHT22;26371;56.992;23.912;2023-07-20T07:20:54;18.70;99.90
40153;DHT22;26371;56.992;23.912;2023-07-20T07:25:52;18.80;99.90
40153;DHT22;26371;56.992;23.912;2023-07-20T07:28:20;18.80;99.90
40153;DHT22;26371;56.992;23.912;2023-07-20T07:30:50;18.70;99.90
40153;DHT22;26371;56.992;23.912;2023-07-20T07:33:19;18.70;99.90
40153;DHT22;26371;56.992;23.912;2023-07-20T07:35:47;18.70;99.90
40153;DHT22;26371;56.992;23.912;2023-07-20T07:38:17;18.70;99.90
40153;DHT22;26371;56.992;23.912;2023-07-20T07:40:50;18.70;99.90
40153;DHT22;26371;56.992;23.912;2023-07-20T07:43:18;18.60;99.90
40153;DHT22;26371;56.992;23.912;2023-07-20T07:45:48;18.50;99.90
40153;DHT22;26371;56.992;23.912;2023-07-20T07:48:17;18.50;99.90
40153;DHT22;26371;56.992;23.912;2023-07-20T07:50:47;18.40;99.90
40153;DHT22;26371;56.992;23.912;2023-07-20T07:53:18;18.30;99.90
40153;DHT22;26371;56.992;23.912;2023-07-20T07:55:47;18.30;99.90
40153;DHT22;26371;56.992;23.912;2023-07-20T07:58:32;18.10;99.90
40153;DHT22;26371;56.992;23.912;2023-07-20T08:01:00;18.00;99.90
40153;DHT22;26371;56.992;23.912;2023-07-20T08:03:28;17.80;99.90
40153;DHT22;26371;56.992;23.912;2023-07-20T08:05:57;17.80;99.90
40153;DHT22;26371;56.992;23.912;2023-07-20T08:08:28;17.70;99.90
40153;DHT22;26371;56.992;23.912;2023-07-20T08:10:58;17.80;99.90
40153;DHT22;26371;56.992;23.912;2023-07-20T08:13:32;18.00;99.90
40153;DHT22;26371;56.992;23.912;2023-07-20T08:16:01;18.30;99.90
40153;DHT22;26371;56.992;23.912;2023-07-20T08:18:30;18.40;99.90
40153;DHT22;26371;56.992;23.912;2023-07-20T08:20:59;18.40;99.90
40153;DHT22;26371;56.992;23.912;2023-07-20T08:23:29;18.30;99.90
40153;DHT22;26371;56.992;23.912;2023-07-20T08:25:57;18.30;99.90
40153;DHT22;26371;56.992;23.912;2023-07-20T08:28:26;18.20;99.90
40153;DHT22;26371;56.992;23.912;2023-07-20T08:30:56;18.30;99.90
40153;DHT22;26371;56.992;23.912;2023-07-20T08:33:24;18.50;99.90
40153;DHT22;26371;56.992;23.912;2023-07-20T08:35:56;18.60;99.90
40153;DHT22;26371;56.992;23.912;2023-07-20T08:38:24;18.60;99.90
40153;DHT22;26371;56.992;23.912;2023-07-20T08:40:54;18.60;99.90
40153;DHT22;26371;56.992;23.912;2023-07-20T08:43:23;18.70;99.90
40153;DHT22;26371;56.992;23.912;2023-07-20T08:45:52;18.80;99.90
40153;DHT22;26371;56.992;23.912;2023-07-20T08:48:22;18.90;99.90
40153;DHT22;26371;56.992;23.912;2023-07-20T08:50:51;19.00;99.90
40153;DHT22;26371;56.992;23.912;2023-07-20T08:53:19;19.10;99.90
40153;DHT22;26371;56.992;23.912;2023-07-20T08:55:50;19.10;99.90
40153;DHT22;26371;56.992;23.912;2023-07-20T08:58:20;19.00;99.90
40153;DHT22;26371;56.992;23.912;2023-07-20T09:00:48;18.90;99.90
40153;DHT22;26371;56.992;23.912;2023-07-20T09:03:18;18.80;99.90
40153;DHT22;26371;56.992;23.912;2023-07-20T09:05:47;18.70;99.90
40153;DHT22;26371;56.992;23.912;2023-07-20T09:08:15;18.80;99.90
40153;DHT22;26371;56.992;23.912;2023-07-20T09:10:44;19.10;99.90
40153;DHT22;26371;56.992;23.912;2023-07-20T09:15:46;19.60;99.90
40153;DHT22;26371;56.992;23.912;2023-07-20T09:18:23;19.40;99.90
40153;DHT22;26371;56.992;23.912;2023-07-20T09:20:51;19.10;99.90
40153;DHT22;26371;56.992;23.912;2023-07-20T09:23:21;18.70;99.90
40153;DHT22;26371;56.992;23.912;2023-07-20T09:25:58;18.30;99.90
40153;DHT22;26371;56.992;23.912;2023-07-20T09:28:26;18.10;99.90
40153;DHT22;26371;56.992;23.912;2023-07-20T09:30:56;18.20;99.90
40153;DHT22;26371;56.992;23.912;2023-07-20T09:33:25;18.60;99.90
40153;DHT22;26371;56.992;23.912;2023-07-20T09:36:01;18.80;99.90
40153;DHT22;26371;56.992;23.912;2023-07-20T09:38:49;18.90;99.90
40153;DHT22;26371;56.992;23.912;2023-07-20T09:41:21;18.80;99.80
40153;DHT22;26371;56.992;23.912;2023-07-20T09:43:52;18.70;99.50
40153;DHT22;26371;56.992;23.912;2023-07-20T09:46:23;18.70;99.90
40153;DHT22;26371;56.992;23.912;2023-07-20T09:48:54;18.50;99.50
40153;DHT22;26371;56.992;23.912;2023-07-20T09:51:25;18.40;99.10
40153;DHT22;26371;56.992;23.912;2023-07-20T09:53:54;18.20;98.80
40153;DHT22;26371;56.992;23.912;2023-07-20T09:56:23;18.10;99.80
40153;DHT22;26371;56.992;23.912;2023-07-20T09:58:53;18.00;99.90
40153;DHT22;26371;56.992;23.912;2023-07-20T10:01:23;17.90;99.60
40153;DHT22;26371;56.992;23.912;2023-07-20T10:03:54;17.80;99.80
40153;DHT22;26371;56.992;23.912;2023-07-20T10:06:24;17.70;99.90
40153;DHT22;26371;56.992;23.912;2023-07-20T10:08:55;17.70;99.90
40153;DHT22;26371;56.992;23.912;2023-07-20T10:46:44;18.90;99.90
40153;DHT22;26371;56.992;23.912;2023-07-20T10:49:13;18.90;99.60
40153;DHT22;26371;56.992;23.912;2023-07-20T10:51:43;19.20;98.90
40153;DHT22;26371;56.992;23.912;2023-07-20T10:59:45;19.50;99.40
40153;DHT22;26371;56.992;23.912;2023-07-20T11:02:18;19.70;99.20
40153;DHT22;26371;56.992;23.912;2023-07-20T11:04:48;19.90;99.40
40153;DHT22;26371;56.992;23.912;2023-07-20T11:07:17;20.10;98.90
40153;DHT22;26371;56.992;23.912;2023-07-20T11:09:46;20.10;99.00
40153;DHT22;26371;56.992;23.912;2023-07-20T11:12:17;20.30;99.90
40153;DHT22;26371;56.992;23.912;2023-07-20T11:14:52;20.50;99.90
40153;DHT22;26371;56.992;23.912;2023-07-20T11:17:28;20.50;99.90
40153;DHT22;26371;56.992;23.912;2023-07-20T11:19:57;20.60;99.90
40153;DHT22;26371;56.992;23.912;2023-07-20T11:22:30;20.80;99.90
40153;DHT22;26371;56.992;23.912;2023-07-20T11:24:59;20.80;99.90
40153;DHT22;26371;56.992;23.912;2023-07-20T11:27:27;20.90;99.90
40153;DHT22;26371;56.992;23.912;2023-07-20T11:29:56;20.70;99.90
40153;DHT22;26371;56.992;23.912;2023-07-20T11:32:26;20.50;99.90
40153;DHT22;26371;56.992;23.912;2023-07-20T11:34:54;20.30;99.90
40153;DHT22;26371;56.992;23.912;2023-07-20T11:37:22;20.10;99.90
40153;DHT22;26371;56.992;23.912;2023-07-20T11:39:54;20.00;99.90
40153;DHT22;26371;56.992;23.912;2023-07-20T11:42:23;20.00;99.90
40153;DHT22;26371;56.992;23.912;2023-07-20T11:44:54;20.00;99.90
40153;DHT22;26371;56.992;23.912;2023-07-20T11:47:28;19.90;99.90
40153;DHT22;26371;56.992;23.912;2023-07-20T11:49:57;20.00;99.90
40153;DHT22;26371;56.992;23.912;2023-07-20T11:52:31;20.40;99.90
40153;DHT22;26371;56.992;23.912;2023-07-20T11:54:59;20.70;99.90
40153;DHT22;26371;56.992;23.912;2023-07-20T11:57:28;20.70;99.90
40153;DHT22;26371;56.992;23.912;2023-07-20T11:59:57;20.60;99.90
40153;DHT22;26371;56.992;23.912;2023-07-20T12:02:32;20.50;99.90
40153;DHT22;26371;56.992;23.912;2023-07-20T12:05:01;20.70;99.90
40153;DHT22;26371;56.992;23.912;2023-07-20T12:07:32;21.00;99.90
40153;DHT22;26371;56.992;23.912;2023-07-20T12:10:03;21.10;99.90
40153;DHT22;26371;56.992;23.912;2023-07-20T12:12:32;21.10;99.90
40153;DHT22;26371;56.992;23.912;2023-07-20T12:17:45;21.10;99.90
40153;DHT22;26371;56.992;23.912;2023-07-20T12:20:24;21.00;99.90
40153;DHT22;26371;56.992;23.912;2023-07-20T12:22:52;20.80;99.90
40153;DHT22;26371;56.992;23.912;2023-07-20T12:25:21;20.80;99.90
40153;DHT22;26371;56.992;23.912;2023-07-20T12:27:49;20.80;99.90
40153;DHT22;26371;56.992;23.912;2023-07-20T12:30:18;20.80;99.90
40153;DHT22;26371;56.992;23.912;2023-07-20T12:32:48;20.80;99.90
40153;DHT22;26371;56.992;23.912;2023-07-20T12:35:17;20.60;99.90
40153;DHT22;26371;56.992;23.912;2023-07-20T12:37:45;20.60;99.90
40153;DHT22;26371;56.992;23.912;2023-07-20T12:40:16;20.70;99.90
40153;DHT22;26371;56.992;23.912;2023-07-20T12:42:44;20.90;99.90
40153;DHT22;26371;56.992;23.912;2023-07-20T12:45:13;20.90;99.90
40153;DHT22;26371;56.992;23.912;2023-07-20T12:47:41;20.80;99.90
40153;DHT22;26371;56.992;23.912;2023-07-20T12:50:12;20.60;99.90
40153;DHT22;26371;56.992;23.912;2023-07-20T12:52:40;20.60;99.90
40153;DHT22;26371;56.992;23.912;2023-07-20T12:55:09;20.70;99.90
40153;DHT22;26371;56.992;23.912;2023-07-20T12:57:38;20.80;99.90
40153;DHT22;26371;56.992;23.912;2023-07-20T13:00:10;21.00;99.90
40153;DHT22;26371;56.992;23.912;2023-07-20T13:02:39;20.90;99.90
40153;DHT22;26371;56.992;23.912;2023-07-20T13:05:08;20.80;99.90
40153;DHT22;26371;56.992;23.912;2023-07-20T13:07:38;20.60;99.90
40153;DHT22;26371;56.992;23.912;2023-07-20T13:10:10;20.50;99.90
40153;DHT22;26371;56.992;23.912;2023-07-20T13:12:39;20.50;99.90
40153;DHT22;26371;56.992;23.912;2023-07-20T13:15:08;20.60;99.90
40153;DHT22;26371;56.992;23.912;2023-07-20T13:17:37;20.60;99.90
40153;DHT22;26371;56.992;23.912;2023-07-20T13:20:07;20.50;99.90
40153;DHT22;26371;56.992;23.912;2023-07-20T13:22:38;20.50;99.90
40153;DHT22;26371;56.992;23.912;2023-07-20T13:25:07;20.60;99.90
40153;DHT22;26371;56.992;23.912;2023-07-20T13:27:36;20.70;99.90
40153;DHT22;26371;56.992;23.912;2023-07-20T13:30:05;20.60;99.90
40153;DHT22;26371;56.992;23.912;2023-07-20T13:32:36;20.50;99.90
40153;DHT22;26371;56.992;23.912;2023-07-20T13:35:10;20.50;99.90
40153;DHT22;26371;56.992;23.912;2023-07-20T13:37:40;20.50;99.90
40153;DHT22;26371;56.992;23.912;2023-07-20T13:40:09;20.40;99.90
40153;DHT22;26371;56.992;23.912;2023-07-20T13:42:40;20.30;99.90
40153;DHT22;26371;56.992;23.912;2023-07-20T13:45:08;20.20;99.90
40153;DHT22;26371;56.992;23.912;2023-07-20T13:47:37;20.10;99.90
40153;DHT22;26371;56.992;23.912;2023-07-20T13:50:06;20.10;99.90
40153;DHT22;26371;56.992;23.912;2023-07-20T13:52:52;20.20;99.90
40153;DHT22;26371;56.992;23.912;2023-07-20T13:55:40;20.30;99.90
40153;DHT22;26371;56.992;23.912;2023-07-20T13:58:12;20.50;99.90
40153;DHT22;26371;56.992;23.912;2023-07-20T14:00:40;20.80;99.90
40153;DHT22;26371;56.992;23.912;2023-07-20T14:03:09;20.80;99.90
40153;DHT22;26371;56.992;23.912;2023-07-20T14:05:41;21.00;99.90
40153;DHT22;26371;56.992;23.912;2023-07-20T14:08:15;21.00;99.90
40153;DHT22;26371;56.992;23.912;2023-07-20T14:10:43;21.10;99.90
40153;DHT22;26371;56.992;23.912;2023-07-20T14:13:15;21.10;99.90
40153;DHT22;26371;56.992;23.912;2023-07-20T14:15:43;21.00;99.90
40153;DHT22;26371;56.992;23.912;2023-07-20T14:18:12;21.10;99.90
40153;DHT22;26371;56.992;23.912;2023-07-20T14:20:43;21.10;99.90
40153;DHT22;26371;56.992;23.912;2023-07-20T14:23:11;21.10;99.90
40153;DHT22;26371;56.992;23.912;2023-07-20T14:25:41;20.90;99.90
40153;DHT22;26371;56.992;23.912;2023-07-20T14:28:10;20.80;99.90
40153;DHT22;26371;56.992;23.912;2023-07-20T14:30:39;20.70;99.90
40153;DHT22;26371;56.992;23.912;2023-07-20T14:33:07;20.60;99.90
40153;DHT22;26371;56.992;23.912;2023-07-20T14:35:36;20.50;99.90
40153;DHT22;26371;56.992;23.912;2023-07-20T14:38:04;20.50;99.90
40153;DHT22;26371;56.992;23.912;2023-07-20T14:40:33;20.40;99.90
40153;DHT22;26371;56.992;23.912;2023-07-20T14:43:03;20.40;99.90
40153;DHT22;26371;56.992;23.912;2023-07-20T14:45:31;20.50;99.90
40153;DHT22;26371;56.992;23.912;2023-07-20T14:48:00;20.60;99.90
40153;DHT22;26371;56.992;23.912;2023-07-20T14:50:28;20.80;99.90
40153;DHT22;26371;56.992;23.912;2023-07-20T14:55:32;22.10;99.90
40153;DHT22;26371;56.992;23.912;2023-07-20T14:58:00;22.20;99.90
40153;DHT22;26371;56.992;23.912;2023-07-20T15:00:31;22.20;99.90
40153;DHT22;26371;56.992;23.912;2023-07-20T15:03:00;22.00;99.90
40153;DHT22;26371;56.992;23.912;2023-07-20T15:05:28;22.10;99.90
40153;DHT22;26371;56.992;23.912;2023-07-20T15:35:24;21.40;94.40
40153;DHT22;26371;56.992;23.912;2023-07-20T15:37:53;21.40;95.30
40153;DHT22;26371;56.992;23.912;2023-07-20T15:40:21;21.60;95.20
40153;DHT22;26371;56.992;23.912;2023-07-20T15:42:50;21.70;94.90
40153;DHT22;26371;56.992;23.912;2023-07-20T15:45:20;21.90;94.60
40153;DHT22;26371;56.992;23.912;2023-07-20T15:47:49;22.00;94.10
40153;DHT22;26371;56.992;23.912;2023-07-20T15:50:18;22.00;93.90
40153;DHT22;26371;56.992;23.912;2023-07-20T15:52:49;22.00;93.60
40153;DHT22;26371;56.992;23.912;2023-07-20T15:55:24;22.00;94.00
40153;DHT22;26371;56.992;23.912;2023-07-20T15:57:52;22.00;94.00
40153;DHT22;26371;56.992;23.912;2023-07-20T16:00:21;22.00;94.10
40153;DHT22;26371;56.992;23.912;2023-07-20T16:02:49;21.90;93.60
40153;DHT22;26371;56.992;23.912;2023-07-20T16:05:18;21.90;94.10
40153;DHT22;26371;56.992;23.912;2023-07-20T16:07:47;21.90;94.40
40153;DHT22;26371;56.992;23.912;2023-07-20T16:10:17;21.70;93.60
40153;DHT22;26371;56.992;23.912;2023-07-20T16:12:45;21.40;94.00
40153;DHT22;26371;56.992;23.912;2023-07-20T16:15:13;21.20;94.80
40153;DHT22;26371;56.992;23.912;2023-07-20T16:18:02;21.10;95.10
40153;DHT22;26371;56.992;23.912;2023-07-20T16:20:30;20.80;94.30
40153;DHT22;26371;56.992;23.912;2023-07-20T16:22:59;20.70;93.90
40153;DHT22;26371;56.992;23.912;2023-07-20T16:25:28;20.50;94.30
40153;DHT22;26371;56.992;23.912;2023-07-20T16:38:00;20.30;99.90
40153;DHT22;26371;56.992;23.912;2023-07-20T16:40:33;19.90;95.10
40153;DHT22;26371;56.992;23.912;2023-07-20T16:43:21;19.90;99.90
40153;DHT22;26371;56.992;23.912;2023-07-20T16:45:57;19.70;99.90
40153;DHT22;26371;56.992;23.912;2023-07-20T16:48:26;19.60;99.90
40153;DHT22;26371;56.992;23.912;2023-07-20T16:56:00;19.40;99.90
40153;DHT22;26371;56.992;23.912;2023-07-20T16:58:28;19.40;99.90
40153;DHT22;26371;56.992;23.912;2023-07-20T17:03:25;19.40;97.90
40153;DHT22;26371;56.992;23.912;2023-07-20T17:05:56;19.50;97.70
40153;DHT22;26371;56.992;23.912;2023-07-20T17:08:24;19.40;97.90
40153;DHT22;26371;56.992;23.912;2023-07-20T17:10:51;19.40;97.90
40153;DHT22;26371;56.992;23.912;2023-07-20T17:13:21;19.40;97.90
40153;DHT22;26371;56.992;23.912;2023-07-20T17:15:50;19.40;98.10
40153;DHT22;26371;56.992;23.912;2023-07-20T17:18:18;19.40;97.90
40153;DHT22;26371;56.992;23.912;2023-07-20T17:20:47;19.40;97.70
40153;DHT22;26371;56.992;23.912;2023-07-20T17:23:18;19.30;96.90
40153;DHT22;26371;56.992;23.912;2023-07-20T17:25:50;19.10;95.60
40153;DHT22;26371;56.992;23.912;2023-07-20T17:28:22;19.10;95.80
40153;DHT22;26371;56.992;23.912;2023-07-20T18:23:29;18.10;99.90
40153;DHT22;26371;56.992;23.912;2023-07-20T19:23:26;17.20;97.70